LIRFLFKS

Guest
Details From LIRF - Roma Fiumicino Leonardo Da Vinci
To LFKS - Solenzara
Flight Number -
Tags generated
Created
Modified
Stats Distance 127 nm / 236 km
Max Altitude 9,100 ft / 2,774 m
Waypoints 3
Social Downloads 2
Likes 0
Share VATSIM

Download

Looking for another format? Having issues loading an existing format? Contact us
Advertisement - Login to hide

Notes

Basic altitude profile: - Ascent Rate: 2500ft/min - Ascent Speed: 250kts - Cruise Altitude: 240ft - Cruise Speed: 420kts - Descent Rate: 1500ft/min - Descent Speed: 250kts Options: - Use NATs: yes - Use PACOTS: yes - Use low airways: yes - Use high airways: yes

Route

LIRF DIGIX LFKS

ID Type Via Altitude Latitude Longitude Leg Dist Tot Dist Heading (true) Name
O LIRF APT - 0 ft / 0 m 41.81081˚ 12.25090˚ - 0 nm - Roma Fiumicino Leonardo Da Vinci
DIGIX FIX - 9,100 ft / 2,774 m 41.88833˚ 10.36083˚ 84 nm 84 nm 274° / 273° -
O LFKS APT - 0 ft / 0 m 41.92462˚ 9.40532˚ 42 nm 127 nm 273° / 273° Solenzara

Altitude Profile

Advertisement - Login to hide

LIRF

Details ICAO LIRF (FCO)
Name Roma Fiumicino Leonardo Da Vinci
Region Italy
Timezone Europe/Rome (UTC+2.0)
Stats Elevation 15 ft / 5 m (AMSL)
Location 41.810809° 12.250897°
Runways 3
Magnetic Variation 3.050° E

METAR

LIRF 230750Z VRB05KT 9999 SCT035 26/18 Q1015 NOSIG

Decode

TAF

TAF LIRF 230500Z 2306/2412 04007KT 9999 FEW020 BECMG 2306/2308 16012KT BECMG 2310/2312 23010KT BECMG 2315/2317 VRB05KT BECMG 2409/2411 24010KT

Decode

Departure Runways

ID Width Length Bearing (true) Bearing (mag) Surface Threshold Offset Overrun Length
07 148 ft / 45 m 10,835 ft / 3,302 m 69.67° 66.62° Asphalt 1,365 ft / 416 m 0 ft / 0 m
16L 197 ft / 60 m 12,832 ft / 3,911 m 162.67° 159.62° Asphalt 0 ft / 0 m 0 ft / 0 m
16R 197 ft / 60 m 12,822 ft / 3,908 m 162.66° 159.61° Asphalt 0 ft / 0 m 0 ft / 0 m
25 148 ft / 45 m 10,835 ft / 3,302 m 249.70° 246.65° Asphalt 0 ft / 0 m 0 ft / 0 m
34L 197 ft / 60 m 12,822 ft / 3,908 m 342.67° 339.62° Asphalt 1,053 ft / 321 m 0 ft / 0 m
34R 197 ft / 60 m 12,832 ft / 3,911 m 342.68° 339.63° Asphalt 0 ft / 0 m 0 ft / 0 m

LFKS

Details ICAO LFKS (SOZ)
Name Solenzara
Region France
Timezone Europe/Paris (UTC+2.0)
Stats Elevation 27 ft / 8 m (AMSL)
Location 41.924616° 9.405323°
Runways 1
Magnetic Variation 2.508° E

METAR

LFKS 230800Z AUTO 05012KT 9999 BKN025 BKN120 26/19 Q1016

Decode

TAF

TAF LFKS 230306Z 2303/2403 CNL

Decode

Destination Runways

ID Width Length Bearing (true) Bearing (mag) Surface Threshold Offset Overrun Length
18 148 ft / 45 m 8,582 ft / 2,616 m 179.77° 177.26° Concrete 0 ft / 0 m 686 ft / 209 m
36 148 ft / 45 m 8,582 ft / 2,616 m 359.77° 357.26° Concrete 0 ft / 0 m 935 ft / 285 m

Approach Navaids

Runway Type Ident Frequency Range Bearing (true) Bearing (mag) Slope Elevation
18 Localiser SZA 109.10 MHz 27 nm / 50 km 178.95° 176.44° - 27 ft / 8 m (AMSL)
18 Glidescope SZA 109.10 MHz 27 nm / 50 km 178.95° 176.44° 2.50° 27 ft / 8 m (AMSL)

Popular Alternatives